createdAt,value
2018-09-25T00:00:45.954Z,0
2018-09-25T00:01:46.195Z,0
2018-09-25T00:02:46.985Z,0
2018-09-25T00:03:47.782Z,0
2018-09-25T00:04:48.587Z,0
2018-09-25T00:05:49.377Z,0
2018-09-25T00:06:50.729Z,0
2018-09-25T00:07:51.800Z,0
2018-09-25T00:08:52.590Z,0
2018-09-25T00:09:53.101Z,0
2018-09-25T00:10:54.614Z,0
2018-09-25T00:11:55.683Z,0
2018-09-25T00:12:56.919Z,0
2018-09-25T00:13:58.003Z,0
2018-09-25T00:14:59.563Z,0
2018-09-25T00:16:00.074Z,0
2018-09-25T00:17:01.419Z,0
2018-09-25T00:18:02.488Z,0
2018-09-25T00:19:03.280Z,0
2018-09-25T00:20:04.078Z,0
2018-09-25T00:21:05.424Z,0
2018-09-25T00:22:05.941Z,0
2018-09-25T00:23:07.838Z,0
2018-09-25T00:24:07.908Z,0
2018-09-25T00:25:09.418Z,0
2018-09-25T00:26:10.320Z,0
2018-09-25T00:27:10.107Z,0
2018-09-25T00:28:10.615Z,0
2018-09-25T00:29:11.963Z,0
2018-09-25T00:30:13.038Z,0
2018-09-25T00:31:14.097Z,0
2018-09-25T00:32:15.992Z,0
2018-09-25T00:33:16.069Z,0
2018-09-25T00:34:17.136Z,0
2018-09-25T00:35:18.099Z,0
2018-09-25T00:36:19.437Z,0
2018-09-25T00:37:20.776Z,0
2018-09-25T00:38:21.283Z,0
2018-09-25T00:39:21.792Z,0
2018-09-25T00:40:23.300Z,0
2018-09-25T00:41:24.094Z,0
2018-09-25T00:42:25.991Z,0
2018-09-25T00:43:25.780Z,0
2018-09-25T00:44:26.290Z,0
2018-09-25T00:45:26.697Z,0
2018-09-25T00:46:28.031Z,0
2018-09-25T00:47:28.094Z,0
2018-09-25T00:48:28.881Z,0
2018-09-25T00:49:30.226Z,0
2018-09-25T00:50:31.159Z,0
2018-09-25T00:51:31.497Z,0
2018-09-25T00:52:32.007Z,0
2018-09-25T00:53:33.077Z,0
2018-09-25T00:54:33.304Z,0
2018-09-25T00:55:34.538Z,0
2018-09-25T00:56:35.327Z,0
2018-09-25T00:57:36.116Z,0
2018-09-25T00:58:37.184Z,0
2018-09-25T00:59:38.859Z,0
2018-09-25T01:00:38.977Z,0
2018-09-25T01:01:39.882Z,0
2018-09-25T01:02:41.225Z,0
2018-09-25T01:03:41.012Z,0
2018-09-25T01:04:42.074Z,0
2018-09-25T01:05:42.479Z,0
2018-09-25T01:06:43.829Z,0
2018-09-25T01:07:44.177Z,0
2018-09-25T01:08:44.684Z,0
2018-09-25T01:09:45.748Z,0
2018-09-25T01:10:46.257Z,0
2018-09-25T01:11:47.606Z,0
2018-09-25T01:12:48.117Z,0
2018-09-25T01:13:49.736Z,0
2018-09-25T01:14:50.078Z,0
2018-09-25T01:15:50.321Z,0
2018-09-25T01:16:50.829Z,0
2018-09-25T01:17:51.616Z,0
2018-09-25T01:18:51.847Z,0
2018-09-25T01:19:53.358Z,0
2018-09-25T01:20:54.143Z,0
2018-09-25T01:21:55.944Z,0
2018-09-25T01:22:56.177Z,0
2018-09-25T01:23:57.242Z,0
2018-09-25T01:24:57.750Z,0
2018-09-25T01:25:58.013Z,0
2018-09-25T01:26:59.356Z,0
2018-09-25T01:28:00.258Z,0
2018-09-25T01:29:00.328Z,0
2018-09-25T01:30:01.387Z,0
2018-09-25T01:31:02.900Z,0
2018-09-25T01:32:03.964Z,0
2018-09-25T01:33:04.030Z,0
2018-09-25T01:34:05.095Z,0
2018-09-25T01:35:05.881Z,0
2018-09-25T01:36:07.402Z,0
2018-09-25T01:37:07.913Z,0
2018-09-25T01:38:08.979Z,0
2018-09-25T01:39:09.044Z,0
2018-09-25T01:40:10.384Z,0
2018-09-25T01:41:11.756Z,0
2018-09-25T01:42:12.267Z,0
2018-09-25T01:43:13.778Z,0
2018-09-25T01:44:14.285Z,0
2018-09-25T01:45:14.797Z,0
2018-09-25T01:46:16.033Z,0
2018-09-25T01:47:16.819Z,0
2018-09-25T01:48:17.883Z,0
2018-09-25T01:49:18.951Z,0
2018-09-25T01:50:19.463Z,0
2018-09-25T01:51:19.969Z,0
2018-09-25T01:52:20.758Z,0
2018-09-25T01:53:21.821Z,0
2018-09-25T01:54:22.605Z,0
2018-09-25T01:55:23.111Z,0
2018-09-25T01:56:23.904Z,0
2018-09-25T01:57:24.967Z,0
2018-09-25T01:58:26.029Z,0
2018-09-25T01:59:26.370Z,0
2018-09-25T02:00:26.600Z,0
2018-09-25T02:01:27.671Z,0
2018-09-25T02:02:28.181Z,0
2018-09-25T02:03:29.521Z,0
2018-09-25T02:04:29.595Z,0
2018-09-25T02:05:30.376Z,0
2018-09-25T02:06:31.896Z,0
2018-09-25T02:07:32.681Z,0
2018-09-25T02:08:32.913Z,0
2018-09-25T02:09:33.981Z,0
2018-09-25T02:10:35.045Z,0
2018-09-25T02:11:35.388Z,0
2018-09-25T02:12:35.729Z,0
2018-09-25T02:13:36.519Z,0
2018-09-25T02:14:37.860Z,0
2018-09-25T02:15:38.930Z,0
2018-09-25T02:16:39.167Z,0
2018-09-25T02:17:40.234Z,0
2018-09-25T02:18:40.739Z,0
2018-09-25T02:19:41.450Z,0
2018-09-25T02:20:43.006Z,0
2018-09-25T02:21:43.241Z,0
2018-09-25T02:22:43.311Z,0
2018-09-25T02:23:44.375Z,0
2018-09-25T02:24:45.180Z,0
2018-09-25T02:25:45.969Z,0
2018-09-25T02:26:46.928Z,0
2018-09-25T02:27:47.712Z,0
2018-09-25T02:28:47.779Z,0
2018-09-25T02:29:48.286Z,0
2018-09-25T02:30:49.917Z,0
2018-09-25T02:31:50.811Z,0
2018-09-25T02:32:50.875Z,0
2018-09-25T02:33:52.498Z,0
2018-09-25T02:34:52.561Z,0
2018-09-25T02:35:53.096Z,0
2018-09-25T02:36:55.169Z,0
2018-09-25T02:37:55.231Z,0
2018-09-25T02:38:56.291Z,0
2018-09-25T02:39:57.636Z,0
2018-09-25T02:40:57.702Z,0
2018-09-25T02:41:59.601Z,0
2018-09-25T02:43:00.500Z,0
2018-09-25T02:44:00.576Z,0
2018-09-25T02:45:01.920Z,0
2018-09-25T02:46:02.707Z,0
2018-09-25T02:47:04.358Z,0
2018-09-25T02:48:04.701Z,0
2018-09-25T02:49:05.603Z,0
2018-09-25T02:50:07.221Z,0
2018-09-25T02:51:07.572Z,0
2018-09-25T02:52:08.194Z,0
2018-09-25T02:53:07.706Z,0
2018-09-25T02:54:08.489Z,0
2018-09-25T02:55:09.552Z,0
2018-09-25T02:56:10.614Z,0
2018-09-25T02:57:11.722Z,0
2018-09-25T02:58:12.508Z,0
2018-09-25T02:59:13.299Z,0
2018-09-25T03:00:14.650Z,0
2018-09-25T03:01:15.447Z,0
2018-09-25T03:02:17.069Z,0
2018-09-25T03:03:18.254Z,0
2018-09-25T03:04:18.316Z,0
2018-09-25T03:05:19.380Z,0
2018-09-25T03:06:21.003Z,0
2018-09-25T03:07:21.671Z,0
2018-09-25T03:08:22.462Z,0
2018-09-25T03:09:24.641Z,0
2018-09-25T03:10:24.707Z,0
2018-09-25T03:11:25.771Z,0
2018-09-25T03:12:27.117Z,0
2018-09-25T03:13:27.198Z,0
2018-09-25T03:14:27.706Z,0
2018-09-25T03:15:28.775Z,0
2018-09-25T03:16:30.955Z,0
2018-09-25T03:17:31.066Z,0
2018-09-25T03:18:31.568Z,0
2018-09-25T03:19:32.372Z,0
2018-09-25T03:20:32.992Z,0
2018-09-25T03:21:33.975Z,0
2018-09-25T03:22:35.042Z,0
2018-09-25T03:23:35.413Z,0
2018-09-25T03:24:36.758Z,0
2018-09-25T03:25:36.863Z,0
2018-09-25T03:26:38.209Z,0
2018-09-25T03:27:39.290Z,0
2018-09-25T03:28:40.639Z,0
2018-09-25T03:29:41.149Z,0
2018-09-25T03:30:43.058Z,0
2018-09-25T03:31:44.242Z,0
2018-09-25T03:32:44.305Z,0
2018-09-25T03:33:46.225Z,0
2018-09-25T03:34:47.398Z,0
2018-09-25T03:35:48.020Z,0
2018-09-25T03:36:48.808Z,0
2018-09-25T03:37:50.072Z,0
2018-09-25T03:38:51.137Z,0
2018-09-25T03:39:52.759Z,0
2018-09-25T03:40:53.099Z,0
2018-09-25T03:41:54.729Z,0
2018-09-25T03:42:55.068Z,0
2018-09-25T03:43:55.688Z,0
2018-09-25T03:44:55.754Z,0
2018-09-25T03:45:56.544Z,0
2018-09-25T03:46:57.153Z,0
2018-09-25T03:47:58.221Z,0
2018-09-25T03:48:58.842Z,0
2018-09-25T03:49:59.463Z,0
2018-09-25T03:51:00.248Z,0
2018-09-25T03:52:01.585Z,0
2018-09-25T03:53:02.649Z,0
2018-09-25T03:54:02.994Z,0
2018-09-25T03:55:03.226Z,0
2018-09-25T03:56:04.020Z,0
2018-09-25T03:57:04.527Z,0
2018-09-25T03:58:05.891Z,0
2018-09-25T03:59:06.677Z,0
2018-09-25T04:00:07.182Z,0
2018-09-25T04:01:08.244Z,0
2018-09-25T04:02:09.310Z,0
2018-09-25T04:03:10.375Z,0
2018-09-25T04:04:11.164Z,0
2018-09-25T04:05:12.548Z,0
2018-09-25T04:06:13.868Z,0
2018-09-25T04:07:14.033Z,0
2018-09-25T04:08:14.850Z,0
2018-09-25T04:09:14.916Z,0
2018-09-25T04:10:15.979Z,0
2018-09-25T04:11:16.888Z,0
2018-09-25T04:12:17.237Z,0
2018-09-25T04:13:18.582Z,0
2018-09-25T04:14:18.929Z,0
2018-09-25T04:15:19.266Z,0
2018-09-25T04:16:20.338Z,0
2018-09-25T04:17:21.681Z,0
2018-09-25T04:18:35.159Z,0
2018-09-25T04:19:35.951Z,0
2018-09-25T04:20:37.570Z,0
2018-09-25T04:21:37.917Z,0
2018-09-25T04:22:39.547Z,0
2018-09-25T04:23:39.890Z,0
2018-09-25T04:24:40.955Z,0
2018-09-25T04:25:41.462Z,0
2018-09-25T04:26:42.806Z,0
2018-09-25T04:27:42.598Z,0
2018-09-25T04:28:43.666Z,0
2018-09-25T04:29:44.776Z,0
2018-09-25T04:30:45.395Z,0
2018-09-25T04:31:46.582Z,0
2018-09-25T04:32:46.372Z,0
2018-09-25T04:33:47.436Z,0
2018-09-25T04:34:47.498Z,0
2018-09-25T04:35:48.563Z,0
2018-09-25T04:36:49.911Z,0
2018-09-25T04:37:49.977Z,0
2018-09-25T04:38:49.761Z,4
2018-09-25T04:39:51.025Z,0
2018-09-25T04:40:52.649Z,0
2018-09-25T04:41:52.993Z,4
2018-09-25T04:42:53.798Z,4
2018-09-25T04:43:54.313Z,4
2018-09-25T04:44:55.931Z,4
2018-09-25T04:45:56.443Z,4
2018-09-25T04:46:56.957Z,4
2018-09-25T04:47:58.619Z,8
2018-09-25T04:48:59.056Z,8
2018-09-25T04:49:59.292Z,8
2018-09-25T04:51:00.355Z,12
2018-09-25T04:52:01.420Z,12
2018-09-25T04:53:02.486Z,12
2018-09-25T04:54:03.385Z,12
2018-09-25T04:55:04.448Z,20
2018-09-25T04:56:04.960Z,20
2018-09-25T04:57:06.957Z,24
2018-09-25T04:58:07.752Z,28
2018-09-25T04:59:07.545Z,32
2018-09-25T05:00:09.052Z,36
2018-09-25T05:01:09.840Z,40
2018-09-25T05:02:10.907Z,48
2018-09-25T05:03:11.413Z,48
2018-09-25T05:04:12.477Z,56
2018-09-25T05:05:13.988Z,60
2018-09-25T05:06:15.606Z,64
2018-09-25T05:07:15.948Z,76
2018-09-25T05:08:17.013Z,80
2018-09-25T05:09:17.074Z,88
2018-09-25T05:10:18.312Z,96
2018-09-25T05:11:19.141Z,104
2018-09-25T05:12:20.213Z,116
2018-09-25T05:13:20.723Z,124
2018-09-25T05:14:21.787Z,132
2018-09-25T05:15:22.407Z,140
2018-09-25T05:16:22.196Z,152
2018-09-25T05:17:23.277Z,164
2018-09-25T05:18:24.619Z,176
2018-09-25T05:19:25.410Z,192
2018-09-25T05:20:25.649Z,200
2018-09-25T05:21:26.158Z,216
2018-09-25T05:22:27.221Z,228
2018-09-25T05:23:29.807Z,244
2018-09-25T05:24:28.677Z,260
2018-09-25T05:25:29.194Z,272
2018-09-25T05:26:31.095Z,288
2018-09-25T05:27:31.650Z,300
2018-09-25T05:28:32.717Z,316
2018-09-25T05:29:33.509Z,332
2018-09-25T05:30:34.306Z,348
2018-09-25T05:31:35.928Z,368
2018-09-25T05:32:36.553Z,384
2018-09-25T05:33:36.344Z,404
2018-09-25T05:34:37.133Z,424
2018-09-25T05:35:38.483Z,444
2018-09-25T05:36:38.548Z,464
2018-09-25T05:37:40.173Z,488
2018-09-25T05:38:40.810Z,516
2018-09-25T05:39:41.430Z,540
2018-09-25T05:40:42.247Z,568
2018-09-25T05:41:43.038Z,600
2018-09-25T05:42:44.105Z,628
2018-09-25T05:43:44.895Z,660
2018-09-25T05:44:45.961Z,692
2018-09-25T05:45:46.748Z,724
2018-09-25T05:46:48.260Z,808
2018-09-25T05:47:48.777Z,988
2018-09-25T05:48:52.059Z,1776
2018-09-25T05:49:51.267Z,7468
2018-09-25T05:50:52.370Z,12896
2018-09-25T05:51:52.885Z,15712
2018-09-25T05:52:53.688Z,16576
2018-09-25T05:53:55.347Z,15616
2018-09-25T05:54:56.138Z,17792
2018-09-25T05:55:57.495Z,9740
2018-09-25T05:56:57.891Z,15168
2018-09-25T05:57:58.240Z,14688
2018-09-25T05:58:59.036Z,14144
2018-09-25T06:00:01.847Z,20448
2018-09-25T06:01:05.159Z,17120
2018-09-25T06:02:03.958Z,12896
2018-09-25T06:03:04.237Z,6828
2018-09-25T06:04:05.447Z,13984
2018-09-25T06:05:06.654Z,23008
2018-09-25T06:06:07.192Z,13728
2018-09-25T06:07:07.993Z,4248
2018-09-25T06:08:09.350Z,4304
2018-09-25T06:09:10.875Z,3548
2018-09-25T06:10:11.247Z,4112
2018-09-25T06:11:12.266Z,5024
2018-09-25T06:12:12.334Z,6428
2018-09-25T06:13:12.415Z,7968
2018-09-25T06:14:13.214Z,11176
2018-09-25T06:15:15.399Z,9820
2018-09-25T06:16:15.447Z,6656
2018-09-25T06:17:16.250Z,3752
2018-09-25T06:18:16.039Z,1968
2018-09-25T06:19:17.864Z,1780
2018-09-25T06:20:19.215Z,1992
2018-09-25T06:21:22.055Z,1452
2018-09-25T06:22:21.325Z,1404
2018-09-25T06:23:21.839Z,1400
2018-09-25T06:24:22.921Z,1432
2018-09-25T06:25:23.851Z,1484
2018-09-25T06:26:24.545Z,1600
2018-09-25T06:27:25.614Z,1864
2018-09-25T06:28:26.713Z,1752
2018-09-25T06:29:27.057Z,1744
2018-09-25T06:30:28.739Z,1984
2018-09-25T06:31:29.543Z,2248
2018-09-25T06:32:30.330Z,2316
2018-09-25T06:33:31.125Z,2364
2018-09-25T06:34:32.739Z,2244
2018-09-25T06:35:33.372Z,2824
2018-09-25T06:36:33.888Z,3772
2018-09-25T06:37:34.968Z,2840
2018-09-25T06:38:36.599Z,2580
2018-09-25T06:39:37.395Z,3748
2018-09-25T06:40:37.913Z,5816
2018-09-25T06:41:38.882Z,4648
2018-09-25T06:42:39.680Z,5540
2018-09-25T06:43:40.751Z,12912
2018-09-25T06:44:41.552Z,22848
2018-09-25T06:45:43.331Z,14032
2018-09-25T06:46:43.947Z,7076
2018-09-25T06:47:46.078Z,3404
2018-09-25T06:48:45.882Z,4812
2018-09-25T06:49:47.752Z,3392
2018-09-25T06:50:48.500Z,2932
2018-09-25T06:51:48.920Z,3048
2018-09-25T06:52:52.795Z,10784
2018-09-25T06:53:50.437Z,8492
2018-09-25T06:54:52.949Z,11504
2018-09-25T06:55:53.125Z,10776
2018-09-25T06:56:52.924Z,7276
2018-09-25T06:57:55.185Z,8812
2018-09-25T06:58:56.275Z,14816
2018-09-25T06:59:56.645Z,13900
2018-09-25T07:00:58.729Z,8256
2018-09-25T07:01:58.546Z,3872
2018-09-25T07:02:59.899Z,3588
2018-09-25T07:03:59.694Z,3536
2018-09-25T07:05:00.213Z,3504
2018-09-25T07:06:01.014Z,4220
2018-09-25T07:07:01.812Z,6800
2018-09-25T07:08:02.616Z,16928
2018-09-25T07:09:03.694Z,21376
2018-09-25T07:10:05.326Z,11788
2018-09-25T07:11:05.418Z,18880
2018-09-25T07:12:06.390Z,51072
2018-09-25T07:13:07.197Z,60960
2018-09-25T07:14:07.714Z,35296
2018-09-25T07:15:09.798Z,32032
2018-09-25T07:16:10.155Z,33856
2018-09-25T07:17:10.955Z,18144
2018-09-25T07:18:14.321Z,4812
2018-09-25T07:19:15.671Z,3928
2018-09-25T07:20:15.961Z,3720
2018-09-25T07:21:15.907Z,3696
2018-09-25T07:22:16.676Z,7336
2018-09-25T07:23:17.879Z,8620
2018-09-25T07:24:18.253Z,14936
2018-09-25T07:25:19.777Z,17152
2018-09-25T07:26:20.580Z,11404
2018-09-25T07:27:21.173Z,5644
2018-09-25T07:28:23.245Z,5416
2018-09-25T07:29:23.761Z,7484
2018-09-25T07:30:25.588Z,4180
2018-09-25T07:31:27.420Z,3904
2018-09-25T07:32:28.030Z,4016
2018-09-25T07:33:28.631Z,3848
2018-09-25T07:34:29.268Z,4012
2018-09-25T07:35:30.627Z,3244
2018-09-25T07:36:30.698Z,3796
2018-09-25T07:37:31.219Z,2788
2018-09-25T07:38:32.385Z,2640
2018-09-25T07:39:33.666Z,4384
2018-09-25T07:40:34.601Z,4436
2018-09-25T07:41:35.958Z,4296
2018-09-25T07:42:36.798Z,5596
2018-09-25T07:43:37.615Z,6048
2018-09-25T07:44:38.685Z,4904
2018-09-25T07:45:38.758Z,4128
2018-09-25T07:46:40.121Z,4092
2018-09-25T07:47:40.916Z,4468
2018-09-25T07:48:41.985Z,4248
2018-09-25T07:49:42.508Z,4824
2018-09-25T07:50:43.590Z,5484
2018-09-25T07:51:44.109Z,5412
2018-09-25T07:52:45.354Z,5412
2018-09-25T07:53:46.260Z,3752
2018-09-25T07:54:47.317Z,3580
2018-09-25T07:55:48.399Z,3452
2018-09-25T07:56:48.908Z,3460
2018-09-25T07:57:50.260Z,3328
2018-09-25T07:58:50.779Z,3252
2018-09-25T07:59:51.606Z,3168
2018-09-25T08:00:52.398Z,3204
2018-09-25T08:01:53.472Z,3508
2018-09-25T08:02:54.025Z,3644
2018-09-25T08:03:55.200Z,3464
2018-09-25T08:04:56.048Z,3544
2018-09-25T08:05:56.647Z,3744
2018-09-25T08:06:57.999Z,3852
2018-09-25T08:07:58.798Z,3592
2018-09-25T08:08:59.619Z,4188
2018-09-25T08:10:01.829Z,3920
2018-09-25T08:11:02.650Z,3872
2018-09-25T08:12:02.445Z,3680
2018-09-25T08:13:03.414Z,3600
2018-09-25T08:14:04.209Z,3868
2018-09-25T08:15:04.454Z,3940
2018-09-25T08:16:05.251Z,3752
2018-09-25T08:17:05.488Z,3532
2018-09-25T08:18:06.561Z,3548
2018-09-25T08:19:07.006Z,3660
2018-09-25T08:20:07.549Z,4212
2018-09-25T08:21:08.066Z,4224
2018-09-25T08:22:08.862Z,3828
2018-09-25T08:23:09.139Z,3240
2018-09-25T08:24:11.213Z,3472
2018-09-25T08:25:10.738Z,3404
2018-09-25T08:26:11.972Z,3576
2018-09-25T08:27:12.429Z,4044
2018-09-25T08:28:13.502Z,3824
2018-09-25T08:29:14.313Z,4176
2018-09-25T08:30:15.384Z,3904
2018-09-25T08:31:15.768Z,4468
2018-09-25T08:32:16.623Z,4652
2018-09-25T08:33:17.269Z,4416
2018-09-25T08:34:18.069Z,4380
2018-09-25T08:35:18.861Z,4324
2018-09-25T08:36:19.107Z,4552
2018-09-25T08:37:20.482Z,4752
2018-09-25T08:38:22.189Z,4464
2018-09-25T08:39:22.523Z,4132
2018-09-25T08:40:23.572Z,4012
2018-09-25T08:41:24.364Z,4136
2018-09-25T08:42:25.481Z,3784
2018-09-25T08:43:26.197Z,3864
2018-09-25T08:44:26.717Z,4700
2018-09-25T08:45:27.791Z,4616
2018-09-25T08:46:27.585Z,4488
2018-09-25T08:47:29.543Z,4676
2018-09-25T08:48:30.329Z,3720
2018-09-25T08:49:31.127Z,3796
2018-09-25T08:50:32.205Z,3756
2018-09-25T08:51:32.725Z,3448
2018-09-25T08:52:34.797Z,4276
2018-09-25T08:53:36.565Z,4588
2018-09-25T08:54:37.249Z,4008
2018-09-25T08:55:39.041Z,3908
2018-09-25T08:56:39.280Z,2536
2018-09-25T08:57:40.354Z,3448
2018-09-25T08:58:41.950Z,3712
2018-09-25T08:59:42.040Z,4252
2018-09-25T09:00:43.117Z,4636
2018-09-25T09:01:43.913Z,4884
2018-09-25T09:02:45.265Z,4640
2018-09-25T09:03:46.068Z,4468
2018-09-25T09:04:46.434Z,4512
2018-09-25T09:05:46.877Z,4304
2018-09-25T09:06:48.118Z,4260
2018-09-25T09:07:48.914Z,4252
2018-09-25T09:08:49.710Z,4112
2018-09-25T09:09:49.515Z,3964
2018-09-25T09:10:51.033Z,4036
2018-09-25T09:11:52.361Z,4216
2018-09-25T09:12:53.386Z,3932
2018-09-25T09:13:53.305Z,3860
2018-09-25T09:14:54.381Z,3800
2018-09-25T09:15:55.176Z,3684
2018-09-25T09:16:55.525Z,3276
2018-09-25T09:17:57.041Z,3244
2018-09-25T09:18:57.841Z,3820
2018-09-25T09:19:58.704Z,3948
2018-09-25T09:21:00.045Z,3844
2018-09-25T09:21:59.841Z,3700
2018-09-25T09:23:00.914Z,3744
2018-09-25T09:24:01.463Z,3840
2018-09-25T09:25:03.321Z,3796
2018-09-25T09:26:02.757Z,3476
2018-09-25T09:27:03.549Z,2596
2018-09-25T09:28:04.623Z,2588
2018-09-25T09:29:05.419Z,3064
2018-09-25T09:30:07.656Z,3692
2018-09-25T09:32:29.027Z,3952
2018-09-25T09:33:29.801Z,3968
2018-09-25T09:34:30.675Z,4080
2018-09-25T09:35:32.152Z,4152
2018-09-25T09:36:32.827Z,2896
2018-09-25T09:37:33.264Z,12212
2018-09-25T09:38:33.545Z,16608
2018-09-25T09:39:34.919Z,16032
2018-09-25T09:40:35.225Z,11776
2018-09-25T09:41:37.352Z,8700
2018-09-25T09:42:37.440Z,3976
2018-09-25T09:43:37.970Z,6360
2018-09-25T09:44:38.777Z,11588
2018-09-25T09:45:40.310Z,5464
2018-09-25T09:46:41.671Z,4360
2018-09-25T09:47:42.348Z,3220
2018-09-25T09:48:44.399Z,2772
2018-09-25T09:49:44.462Z,6392
2018-09-25T09:50:45.273Z,11136
2018-09-25T09:51:46.501Z,7232
2018-09-25T09:52:47.352Z,13916
2018-09-25T09:53:48.877Z,15520
2018-09-25T09:54:49.408Z,2876
2018-09-25T09:55:50.570Z,2308
2018-09-25T09:56:51.385Z,2368
2018-09-25T09:57:52.705Z,3040
2018-09-25T09:58:54.395Z,45088
2018-09-25T09:59:54.737Z,46592
2018-09-25T10:00:56.234Z,45664
2018-09-25T10:01:56.889Z,5220
2018-09-25T10:02:57.589Z,4820
2018-09-25T10:03:58.667Z,10328
2018-09-25T10:05:00.036Z,43808
2018-09-25T10:06:00.573Z,43904
2018-09-25T10:07:02.830Z,43200
2018-09-25T10:08:02.604Z,43072
2018-09-25T10:09:02.969Z,42624
2018-09-25T10:10:04.059Z,40288
2018-09-25T10:11:05.424Z,42400
2018-09-25T10:12:04.853Z,41760
2018-09-25T10:13:06.114Z,41184
2018-09-25T10:14:06.538Z,40320
2018-09-25T10:15:07.750Z,40096
2018-09-25T10:16:08.526Z,39680
2018-09-25T10:17:10.133Z,36288
2018-09-25T10:18:11.669Z,31168
2018-09-25T10:19:11.930Z,30464
2018-09-25T10:20:13.014Z,37088
2018-09-25T10:21:14.105Z,37024
2018-09-25T10:22:15.123Z,15680
2018-09-25T10:23:15.391Z,35936
2018-09-25T10:24:16.222Z,36768
2018-09-25T10:25:17.041Z,3000
2018-09-25T10:26:18.325Z,2344
2018-09-25T10:27:21.044Z,2224
2018-09-25T10:28:20.431Z,2252
2018-09-25T10:29:22.305Z,2168
2018-09-25T10:30:22.851Z,2248
2018-09-25T10:31:23.866Z,2464
2018-09-25T10:32:25.063Z,3032
2018-09-25T10:33:24.827Z,5144
2018-09-25T10:34:26.580Z,21440
2018-09-25T10:35:27.390Z,35168
2018-09-25T10:36:27.957Z,33440
2018-09-25T10:37:28.758Z,31808
2018-09-25T10:38:30.235Z,5004
2018-09-25T10:39:31.633Z,12308
2018-09-25T10:40:32.440Z,31584
2018-09-25T10:41:32.529Z,31488
2018-09-25T10:42:33.618Z,31904
2018-09-25T10:43:34.718Z,14944
2018-09-25T10:44:36.734Z,10456
2018-09-25T10:45:35.822Z,10952
2018-09-25T10:46:35.912Z,7268
2018-09-25T10:47:36.437Z,8844
2018-09-25T10:48:37.581Z,5560
2018-09-25T10:49:38.391Z,17184
2018-09-25T10:50:39.519Z,8492
2018-09-25T10:51:40.044Z,2196
2018-09-25T10:52:41.134Z,2372
2018-09-25T10:53:42.124Z,3084
2018-09-25T10:54:42.924Z,5088
2018-09-25T10:55:44.954Z,25376
2018-09-25T10:56:45.762Z,25568
2018-09-25T10:57:46.290Z,4464
2018-09-25T10:58:47.111Z,22400
2018-09-25T10:59:48.201Z,21120
2018-09-25T11:00:49.816Z,21920
2018-09-25T11:01:49.220Z,19808
2018-09-25T11:02:51.336Z,13184
2018-09-25T11:03:51.028Z,16032
2018-09-25T11:04:50.560Z,16832
2018-09-25T11:05:51.810Z,13528
2018-09-25T11:06:53.347Z,13024
2018-09-25T11:07:53.603Z,16032
2018-09-25T11:08:54.858Z,8444
2018-09-25T11:09:57.458Z,7680
2018-09-25T11:10:57.915Z,9304
2018-09-25T11:11:59.371Z,9532
2018-09-25T11:13:00.462Z,10408
2018-09-25T11:14:00.972Z,6804
2018-09-25T11:15:01.504Z,4340
2018-09-25T11:16:02.310Z,4300
2018-09-25T11:17:03.118Z,5740
2018-09-25T11:18:04.202Z,5988
2018-09-25T11:19:04.734Z,5232
2018-09-25T11:20:05.463Z,3336
2018-09-25T11:21:06.989Z,4364
2018-09-25T11:22:06.794Z,4604
2018-09-25T11:23:08.285Z,5596
2018-09-25T11:24:08.601Z,7776
2018-09-25T11:25:08.975Z,6236
2018-09-25T11:26:09.909Z,4540
2018-09-25T11:27:11.280Z,4300
2018-09-25T11:28:12.409Z,4248
2018-09-25T11:29:11.612Z,4780
2018-09-25T11:30:12.420Z,5520
2018-09-25T11:31:13.228Z,4980
2018-09-25T11:32:14.029Z,4580
2018-09-25T11:33:16.114Z,3796
2018-09-25T11:34:16.583Z,3660
2018-09-25T11:35:19.913Z,3704
2018-09-25T11:36:19.256Z,3896
2018-09-25T11:37:20.373Z,4116
2018-09-25T11:38:20.901Z,4180
2018-09-25T11:39:21.704Z,4324
2018-09-25T11:40:22.792Z,4612
2018-09-25T11:41:25.449Z,4320
2018-09-25T11:42:25.283Z,3708
2018-09-25T11:43:26.670Z,3656
2018-09-25T11:44:27.073Z,3500
2018-09-25T11:45:27.880Z,3612
2018-09-25T11:46:31.423Z,3872
2018-09-25T11:47:30.924Z,4708
2018-09-25T11:48:32.058Z,5464
2018-09-25T11:49:32.867Z,5876
2018-09-25T11:50:35.749Z,6072
2018-09-25T11:51:40.979Z,5780
2018-09-25T11:51:52.982Z,5368
2018-09-25T11:52:01.710Z,5304
2018-09-25T11:53:03.119Z,4380
2018-09-25T11:54:03.201Z,4652
2018-09-25T11:55:04.010Z,4776
2018-09-25T11:56:04.098Z,4936
2018-09-25T11:57:05.189Z,5748
2018-09-25T11:58:05.553Z,6556
2018-09-25T11:59:06.090Z,6696
2018-09-25T12:00:06.908Z,6804
2018-09-25T12:01:07.711Z,6896
2018-09-25T12:02:08.319Z,6608
2018-09-25T12:03:10.367Z,6648
2018-09-25T12:04:10.622Z,5900
2018-09-25T12:05:12.444Z,1988
2018-09-25T12:06:13.248Z,2000
2018-09-25T12:07:14.332Z,2008
2018-09-25T12:08:13.861Z,1964
2018-09-25T12:09:15.386Z,1928
2018-09-25T12:10:16.193Z,1824
2018-09-25T12:11:16.725Z,3392
2018-09-25T12:12:17.360Z,7056
2018-09-25T12:13:18.624Z,6776
2018-09-25T12:14:20.487Z,6880
2018-09-25T12:15:21.292Z,7064
2018-09-25T12:16:21.663Z,7168
2018-09-25T12:17:22.807Z,7408
2018-09-25T12:18:23.897Z,7576
2018-09-25T12:19:23.977Z,7664
2018-09-25T12:20:25.077Z,7536
2018-09-25T12:21:26.715Z,7380
2018-09-25T12:22:27.205Z,7208
2018-09-25T12:23:27.417Z,7268
2018-09-25T12:24:29.170Z,7264
2018-09-25T12:25:29.656Z,7048
2018-09-25T12:26:30.541Z,7244
2018-09-25T12:27:31.162Z,7256
2018-09-25T12:28:32.693Z,7288
2018-09-25T12:29:33.268Z,7240
2018-09-25T12:30:34.796Z,7160
2018-09-25T12:31:36.025Z,5740
2018-09-25T12:32:38.080Z,3336
2018-09-25T12:33:37.298Z,7400
2018-09-25T12:34:39.059Z,7388
2018-09-25T12:35:39.865Z,7280
2018-09-25T12:36:40.980Z,3096
2018-09-25T12:37:42.068Z,7184
2018-09-25T12:38:43.810Z,7024
2018-09-25T12:39:43.204Z,6856
2018-09-25T12:40:43.733Z,6808
2018-09-25T12:41:45.242Z,2100
2018-09-25T12:42:46.119Z,1528
2018-09-25T12:43:46.524Z,7076
2018-09-25T12:44:47.996Z,6848
2018-09-25T12:45:48.329Z,6752
2018-09-25T12:46:49.419Z,6764
2018-09-25T12:47:51.402Z,7012
2018-09-25T12:48:53.462Z,7456
2018-09-25T12:49:53.148Z,7508
2018-09-25T12:50:54.158Z,7340
2018-09-25T12:51:54.651Z,7228
2018-09-25T12:52:56.052Z,7144
2018-09-25T12:53:56.319Z,7156
2018-09-25T12:54:57.441Z,7124
2018-09-25T12:55:58.989Z,7192
2018-09-25T12:56:59.337Z,7140
2018-09-25T12:57:59.882Z,7048
2018-09-25T12:59:01.690Z,7004
2018-09-25T13:00:03.081Z,7116
2018-09-25T13:01:04.454Z,7172
2018-09-25T13:02:04.543Z,7168
2018-09-25T13:03:05.204Z,7172
2018-09-25T13:04:07.125Z,7152
2018-09-25T13:05:06.931Z,7108
2018-09-25T13:06:07.183Z,7148
2018-09-25T13:07:08.997Z,2420
2018-09-25T13:08:10.084Z,7356
2018-09-25T13:09:11.000Z,7472
2018-09-25T13:10:10.549Z,3404
2018-09-25T13:11:11.910Z,1852
2018-09-25T13:12:12.555Z,3940
2018-09-25T13:13:12.642Z,7512
2018-09-25T13:14:13.214Z,7308
2018-09-25T13:15:15.020Z,7244
2018-09-25T13:16:15.832Z,7136
2018-09-25T13:17:16.364Z,7172
2018-09-25T13:18:17.727Z,7208
2018-09-25T13:19:18.368Z,7236
2018-09-25T13:20:20.420Z,7192
2018-09-25T13:21:19.394Z,7232
2018-09-25T13:22:21.041Z,7180
2018-09-25T13:23:21.551Z,7104
2018-09-25T13:24:22.463Z,6856
2018-09-25T13:25:22.992Z,6912
2018-09-25T13:26:23.808Z,7044
2018-09-25T13:27:24.757Z,6984
2018-09-25T13:28:26.287Z,7080
2018-09-25T13:29:27.106Z,7232
2018-09-25T13:30:28.245Z,7288
2018-09-25T13:31:29.379Z,7332
2018-09-25T13:32:31.102Z,7336
2018-09-25T13:33:33.433Z,7360
2018-09-25T13:34:31.998Z,7384
2018-09-25T13:35:33.125Z,7388
2018-09-25T13:36:34.219Z,7384
2018-09-25T13:37:35.315Z,7492
2018-09-25T13:38:35.843Z,7524
2018-09-25T13:39:37.960Z,7524
2018-09-25T13:40:39.670Z,7656
2018-09-25T13:41:39.136Z,7644
2018-09-25T13:42:41.362Z,7624
2018-09-25T13:43:42.169Z,7632
2018-09-25T13:44:42.243Z,7792
2018-09-25T13:45:42.404Z,7864
2018-09-25T13:46:43.213Z,7960
2018-09-25T13:47:44.036Z,7932
2018-09-25T13:48:44.433Z,7828
2018-09-25T13:49:45.313Z,7872
2018-09-25T13:50:46.848Z,8080
2018-09-25T13:51:47.709Z,8072
2018-09-25T13:52:54.155Z,8020
2018-09-25T13:53:03.829Z,7984
2018-09-25T13:53:16.573Z,7924
2018-09-25T13:53:28.885Z,7928
2018-09-25T13:53:41.656Z,7916
2018-09-25T13:53:53.535Z,7924
2018-09-25T13:54:04.386Z,7940